Time;durP1;ratioP1;P1;durP2;ratioP2;P2;SDS_P1;SDS_P2;PMS_P1;PMS_P2;Temp;Humidity;BMP_temperature;BMP_pressure;BME280_temperature;BME280_humidity;BME280_pressure;Samples;Min_cycle;Max_cycle;Signal;HPM_P1;HPM_P2
2023/09/08 00:01:37;;;;;;;9.50;8.02;;;21.70;94.70;;;;;;5071693;28;20035;-75
2023/09/08 00:04:04;;;;;;;9.88;8.95;;;21.60;94.70;;;;;;5056750;28;20099;-75
2023/09/08 00:06:29;;;;;;;8.63;7.90;;;21.60;94.80;;;;;;5059547;28;20021;-75
2023/09/08 00:08:55;;;;;;;9.02;8.10;;;21.50;94.80;;;;;;5056817;28;20021;-75
2023/09/08 00:11:20;;;;;;;9.77;8.88;;;21.50;94.90;;;;;;5052062;28;20490;-75
2023/09/08 00:13:46;;;;;;;7.55;6.85;;;21.50;94.90;;;;;;5050497;28;20082;-75
2023/09/08 00:16:11;;;;;;;10.90;9.00;;;21.50;95.00;;;;;;5055686;28;20028;-74
2023/09/08 00:18:37;;;;;;;8.50;7.80;;;21.50;95.10;;;;;;5066359;28;20108;-75
2023/09/08 00:21:02;;;;;;;11.80;8.55;;;21.40;95.10;;;;;;5059928;28;20021;-75
2023/09/08 00:23:28;;;;;;;9.10;8.30;;;21.40;95.10;;;;;;5051584;28;20033;-74
2023/09/08 00:25:54;;;;;;;9.35;8.15;;;21.40;95.20;;;;;;5062742;28;20036;-75
2023/09/08 00:28:19;;;;;;;9.93;8.18;;;21.40;95.20;;;;;;5059316;28;20135;-74
2023/09/08 00:30:45;;;;;;;10.25;8.13;;;21.40;95.30;;;;;;5062103;28;20105;-75
2023/09/08 00:33:12;;;;;;;10.52;9.48;;;21.30;95.30;;;;;;5064507;28;20028;-74
2023/09/08 00:35:38;;;;;;;9.98;8.98;;;21.30;95.40;;;;;;5061952;28;20035;-74
2023/09/08 00:38:04;;;;;;;10.20;9.20;;;21.20;95.40;;;;;;5064146;28;20029;-74
2023/09/08 00:40:30;;;;;;;9.55;8.55;;;21.20;95.50;;;;;;5062527;28;20070;-74
2023/09/08 00:42:55;;;;;;;9.93;9.02;;;21.20;95.50;;;;;;5064255;28;20028;-75
2023/09/08 00:45:22;;;;;;;9.85;8.85;;;21.20;95.60;;;;;;5060488;28;20362;-74
2023/09/08 00:47:47;;;;;;;10.23;9.32;;;21.10;95.60;;;;;;5055933;28;20060;-74
2023/09/08 00:50:13;;;;;;;9.40;8.60;;;21.10;95.70;;;;;;5058841;28;20052;-75
2023/09/08 00:52:39;;;;;;;11.65;10.35;;;21.10;95.70;;;;;;5064066;28;20032;-74
2023/09/08 00:55:05;;;;;;;10.20;8.95;;;21.10;95.80;;;;;;5050945;28;20041;-74
2023/09/08 00:57:31;;;;;;;13.32;9.25;;;21.00;95.90;;;;;;5051483;28;20091;-75
2023/09/08 00:59:57;;;;;;;10.63;9.73;;;21.00;95.90;;;;;;5050135;28;20033;-75
2023/09/08 01:02:22;;;;;;;10.45;9.52;;;20.90;95.90;;;;;;5043567;28;20044;-75
2023/09/08 01:04:48;;;;;;;8.43;7.68;;;21.00;96.00;;;;;;5051053;28;20464;-75
2023/09/08 01:07:15;;;;;;;10.48;9.45;;;20.90;96.00;;;;;;5051347;28;20023;-75
2023/09/08 01:09:41;;;;;;;10.23;9.23;;;20.90;96.00;;;;;;5050555;28;20105;-74
2023/09/08 01:12:07;;;;;;;9.75;8.85;;;20.80;96.10;;;;;;5052502;28;20032;-75
2023/09/08 01:14:33;;;;;;;9.10;8.35;;;20.70;96.10;;;;;;5051613;28;20014;-74
2023/09/08 01:16:58;;;;;;;10.70;9.68;;;20.80;96.20;;;;;;5051857;28;20025;-75
2023/09/08 01:19:24;;;;;;;10.32;9.43;;;20.70;96.40;;;;;;5050797;28;20074;-75
2023/09/08 01:22:20;;;;;;;11.50;10.45;;;20.70;96.40;;;;;;5052821;28;20099;-75
2023/09/08 01:25:07;;;;;;;10.95;9.95;;;20.60;96.60;;;;;;5051802;28;20024;-75
2023/09/08 01:27:35;;;;;;;11.45;10.45;;;20.60;96.60;;;;;;5041124;28;20067;-75
2023/09/08 01:30:03;;;;;;;10.75;9.73;;;20.50;96.60;;;;;;5053253;28;20022;-75
2023/09/08 01:32:29;;;;;;;11.35;10.25;;;20.60;96.70;;;;;;5052547;28;20108;-74
2023/09/08 01:34:57;;;;;;;10.68;9.68;;;20.50;96.70;;;;;;5052934;28;20103;-75
2023/09/08 01:37:23;;;;;;;12.05;9.63;;;20.50;96.80;;;;;;5052009;28;20053;-75
2023/09/08 01:39:49;;;;;;;10.80;9.80;;;20.50;96.80;;;;;;5053154;28;20389;-74
2023/09/08 01:42:15;;;;;;;10.70;9.70;;;20.50;96.80;;;;;;5050883;28;20027;-75
2023/09/08 01:44:40;;;;;;;11.05;9.80;;;20.40;96.80;;;;;;5054095;28;20017;-75
2023/09/08 01:47:06;;;;;;;9.20;8.40;;;20.40;96.90;;;;;;5052040;28;20032;-75
2023/09/08 01:49:31;;;;;;;12.23;10.95;;;20.40;96.90;;;;;;5052702;28;20024;-74
2023/09/08 01:51:57;;;;;;;10.68;9.73;;;20.40;97.00;;;;;;5057734;28;20033;-75
2023/09/08 01:54:22;;;;;;;10.77;9.88;;;20.40;96.90;;;;;;5069024;28;20032;-74
2023/09/08 01:56:48;;;;;;;10.63;9.63;;;20.40;97.00;;;;;;5068269;28;20055;-74
2023/09/08 01:59:13;;;;;;;12.38;10.70;;;20.30;97.00;;;;;;5067488;28;20099;-75
2023/09/08 02:01:39;;;;;;;11.60;10.43;;;20.30;97.00;;;;;;5068800;28;20033;-75
2023/09/08 02:04:05;;;;;;;11.02;9.93;;;20.30;97.10;;;;;;5067614;28;20013;-75
2023/09/08 02:06:31;;;;;;;10.70;9.68;;;20.30;97.10;;;;;;5055610;28;20025;-74
2023/09/08 02:08:56;;;;;;;15.02;11.88;;;20.30;97.40;;;;;;5062890;28;20020;-75
2023/09/08 02:11:22;;;;;;;11.80;10.60;;;20.20;97.20;;;;;;5068465;28;20474;-75
2023/09/08 02:13:48;;;;;;;12.50;11.25;;;20.20;97.20;;;;;;5067766;28;20032;-75
2023/09/08 02:16:17;;;;;;;13.32;11.20;;;20.20;97.20;;;;;;5066925;28;20074;-75
2023/09/08 02:18:43;;;;;;;12.02;10.15;;;20.20;97.30;;;;;;5065326;28;20021;-75
2023/09/08 02:21:09;;;;;;;11.57;10.57;;;20.20;97.30;;;;;;5066916;28;20021;-75
2023/09/08 02:23:35;;;;;;;11.40;10.20;;;20.10;97.30;;;;;;5067986;28;20029;-75
2023/09/08 02:26:00;;;;;;;13.55;10.85;;;20.10;97.40;;;;;;5068161;28;20025;-75
2023/09/08 02:28:26;;;;;;;11.48;10.45;;;20.00;97.40;;;;;;5067138;28;20533;-75
2023/09/08 02:30:51;;;;;;;12.52;11.35;;;20.00;97.60;;;;;;5050880;28;20024;-74
2023/09/08 02:33:17;;;;;;;11.35;10.13;;;20.00;97.60;;;;;;5049668;28;20036;-75
2023/09/08 02:35:43;;;;;;;10.68;9.68;;;19.90;97.60;;;;;;5048370;28;20024;-75
2023/09/08 02:38:09;;;;;;;13.40;10.90;;;19.90;97.70;;;;;;5052010;28;20046;-75
2023/09/08 02:40:35;;;;;;;14.10;10.32;;;19.90;97.80;;;;;;5050234;28;20499;-75
2023/09/08 02:43:01;;;;;;;12.52;11.43;;;19.90;97.80;;;;;;5051648;28;20021;-75
2023/09/08 02:45:27;;;;;;;12.13;10.95;;;19.90;97.80;;;;;;5048758;28;20024;-75
2023/09/08 02:47:53;;;;;;;11.77;10.45;;;19.90;97.90;;;;;;5047603;28;20039;-75
2023/09/08 02:50:18;;;;;;;12.57;11.10;;;19.80;98.10;;;;;;5048595;28;20017;-75
2023/09/08 02:52:45;;;;;;;13.18;11.93;;;19.90;97.90;;;;;;5053684;28;20091;-75
2023/09/08 02:55:11;;;;;;;13.80;12.55;;;19.90;98.00;;;;;;5015399;28;1159165;-75
2023/09/08 02:57:37;;;;;;;12.25;11.23;;;19.80;98.00;;;;;;5068839;28;20494;-75
2023/09/08 03:00:04;;;;;;;12.43;10.60;;;19.80;98.00;;;;;;5068518;28;20094;-75
2023/09/08 03:02:30;;;;;;;13.88;12.65;;;19.80;98.30;;;;;;5068137;28;20024;-75
2023/09/08 03:04:56;;;;;;;13.10;10.35;;;19.80;98.00;;;;;;5068355;28;20016;-74
2023/09/08 03:07:22;;;;;;;12.77;11.68;;;19.80;98.00;;;;;;5064557;28;20017;-75
2023/09/08 03:09:47;;;;;;;13.10;11.82;;;19.80;98.10;;;;;;5068432;28;20035;-75
2023/09/08 03:12:16;;;;;;;14.13;12.20;;;19.70;98.10;;;;;;5068177;28;20393;-75
2023/09/08 03:14:42;;;;;;;11.85;10.85;;;19.70;98.10;;;;;;5068836;28;20158;-75
2023/09/08 03:17:07;;;;;;;13.82;11.98;;;19.70;98.20;;;;;;5067516;28;20096;-75
2023/09/08 03:19:33;;;;;;;12.90;11.60;;;19.70;98.20;;;;;;5068883;28;20366;-75
2023/09/08 03:21:58;;;;;;;13.30;11.98;;;19.70;98.30;;;;;;5065738;28;20407;-75
2023/09/08 03:24:24;;;;;;;12.43;11.32;;;19.60;98.20;;;;;;5048735;28;20040;-75
2023/09/08 03:26:50;;;;;;;12.70;11.43;;;19.60;98.30;;;;;;5064140;28;20028;-75
2023/09/08 03:29:15;;;;;;;14.55;13.02;;;19.60;98.30;;;;;;5068165;28;20436;-75
2023/09/08 03:31:41;;;;;;;12.73;11.48;;;19.60;98.40;;;;;;5066895;28;20025;-75
2023/09/08 03:34:06;;;;;;;11.77;10.57;;;19.60;98.40;;;;;;5067933;28;20748;-75
2023/09/08 03:36:35;;;;;;;12.80;11.50;;;19.60;98.40;;;;;;5067240;28;20025;-75
2023/09/08 03:39:02;;;;;;;12.57;11.48;;;19.60;98.50;;;;;;5068019;28;20449;-75
2023/09/08 03:41:27;;;;;;;11.88;10.77;;;19.60;98.50;;;;;;5065308;28;20075;-75
2023/09/08 03:43:53;;;;;;;12.48;11.27;;;19.50;98.50;;;;;;5056867;28;20100;-75
2023/09/08 03:46:18;;;;;;;12.75;11.70;;;19.50;98.60;;;;;;5067627;28;20542;-74
2023/09/08 03:48:44;;;;;;;13.25;12.05;;;19.50;98.60;;;;;;5068200;28;20087;-75
2023/09/08 03:51:10;;;;;;;13.60;12.30;;;19.50;98.70;;;;;;5053006;28;20939;-74
2023/09/08 03:53:35;;;;;;;12.02;10.93;;;19.50;98.70;;;;;;5070305;28;20059;-75
2023/09/08 03:56:01;;;;;;;13.52;12.18;;;19.50;98.80;;;;;;5071448;28;20517;-74
2023/09/08 03:58:26;;;;;;;13.88;12.68;;;19.40;98.80;;;;;;5071788;28;20500;-75
2023/09/08 04:00:52;;;;;;;12.93;11.60;;;19.40;98.80;;;;;;5057120;28;20025;-75
2023/09/08 04:03:18;;;;;;;13.55;12.15;;;19.50;98.90;;;;;;5057025;28;20066;-74
2023/09/08 04:05:43;;;;;;;12.60;11.35;;;19.40;98.90;;;;;;5066450;28;20052;-75
2023/09/08 04:08:09;;;;;;;13.07;11.77;;;19.40;98.90;;;;;;5063304;28;20060;-74
2023/09/08 04:10:35;;;;;;;15.35;13.43;;;19.40;98.90;;;;;;5065131;28;20473;-75
2023/09/08 04:13:00;;;;;;;16.15;13.65;;;19.40;99.00;;;;;;5051642;28;20025;-75
2023/09/08 04:15:26;;;;;;;12.05;10.95;;;19.40;99.00;;;;;;5052275;28;20025;-75
2023/09/08 04:17:51;;;;;;;14.80;13.45;;;19.40;99.10;;;;;;5051793;28;20071;-75
2023/09/08 04:20:17;;;;;;;14.77;13.48;;;19.40;99.10;;;;;;5052132;28;20248;-75
2023/09/08 04:22:43;;;;;;;13.80;12.50;;;19.30;99.10;;;;;;5050767;28;20367;-75
2023/09/08 04:25:10;;;;;;;15.38;13.73;;;19.30;99.20;;;;;;5052833;28;20079;-75
2023/09/08 04:27:36;;;;;;;14.10;12.85;;;19.30;99.20;;;;;;5052391;28;20028;-75
2023/09/08 04:30:04;;;;;;;15.50;14.05;;;19.30;99.20;;;;;;5053161;28;20021;-75
2023/09/08 04:32:29;;;;;;;13.20;11.98;;;19.30;99.30;;;;;;5052233;28;20032;-75
2023/09/08 04:34:55;;;;;;;14.82;13.13;;;19.30;99.30;;;;;;5053062;28;20024;-75
2023/09/08 04:37:21;;;;;;;15.07;13.40;;;19.30;99.30;;;;;;5052380;28;20059;-75
2023/09/08 04:39:46;;;;;;;16.05;14.63;;;19.20;99.30;;;;;;5051311;28;20016;-75
2023/09/08 04:42:12;;;;;;;14.48;13.07;;;19.20;99.70;;;;;;5050821;28;20029;-75
2023/09/08 04:44:38;;;;;;;13.38;12.02;;;19.20;99.50;;;;;;5052214;28;20028;-75
2023/09/08 04:47:05;;;;;;;15.70;14.20;;;19.20;99.50;;;;;;5051141;28;20355;-74
2023/09/08 04:49:30;;;;;;;16.80;15.43;;;19.20;99.60;;;;;;5051929;28;20012;-75
2023/09/08 04:51:56;;;;;;;16.83;15.27;;;19.10;99.60;;;;;;5057111;28;20029;-75
2023/09/08 04:54:26;;;;;;;16.23;14.77;;;19.10;99.70;;;;;;5057587;28;20429;-75
2023/09/08 04:56:52;;;;;;;14.68;13.38;;;19.10;99.70;;;;;;5061495;28;20127;-75
2023/09/08 04:59:17;;;;;;;15.43;13.90;;;19.10;99.70;;;;;;5065922;28;20189;-75
2023/09/08 05:01:43;;;;;;;16.80;15.10;;;19.10;99.80;;;;;;5070673;28;20481;-75
2023/09/08 05:04:10;;;;;;;17.88;16.10;;;19.10;99.80;;;;;;5068920;28;20078;-75
2023/09/08 05:06:35;;;;;;;14.85;13.45;;;19.10;99.90;;;;;;5068998;28;20036;-75
2023/09/08 05:09:01;;;;;;;16.17;14.57;;;19.10;99.90;;;;;;5065400;28;20028;-75
2023/09/08 05:11:27;;;;;;;15.85;14.32;;;19.10;99.90;;;;;;5070243;28;20017;-75
2023/09/08 05:13:53;;;;;;;17.10;15.50;;;19.10;99.90;;;;;;5069650;28;20086;-74
2023/09/08 05:16:25;;;;;;;15.30;13.93;;;19.10;99.90;;;;;;5070672;28;20020;-75
2023/09/08 05:18:51;;;;;;;18.23;16.42;;;19.10;99.90;;;;;;5069870;28;20052;-75
2023/09/08 05:21:16;;;;;;;18.00;16.20;;;19.10;99.90;;;;;;5060361;28;20079;-75
2023/09/08 05:23:42;;;;;;;17.02;15.32;;;19.10;99.90;;;;;;5061835;28;20047;-75
2023/09/08 05:26:08;;;;;;;16.48;14.82;;;19.10;99.90;;;;;;5069514;28;20028;-74
2023/09/08 05:28:33;;;;;;;16.08;14.75;;;19.10;99.90;;;;;;5054192;28;20485;-74
2023/09/08 05:30:59;;;;;;;17.67;14.70;;;19.10;99.90;;;;;;5059913;28;20024;-75
2023/09/08 05:33:24;;;;;;;17.13;15.55;;;19.10;99.90;;;;;;5053831;28;20024;-75
2023/09/08 05:35:50;;;;;;;16.33;14.82;;;19.20;99.90;;;;;;5050515;28;20032;-75
2023/09/08 05:38:15;;;;;;;16.33;14.77;;;19.10;99.90;;;;;;5050347;28;20041;-75
2023/09/08 05:40:41;;;;;;;16.95;15.25;;;19.20;99.90;;;;;;5049807;28;20078;-75
2023/09/08 05:43:06;;;;;;;16.77;15.07;;;19.20;99.90;;;;;;5064320;28;20028;-75
2023/09/08 05:45:32;;;;;;;15.70;14.38;;;19.20;99.90;;;;;;5070091;28;20031;-74
2023/09/08 05:47:58;;;;;;;16.08;14.48;;;19.20;99.90;;;;;;5056508;28;20782;-75
2023/09/08 05:50:23;;;;;;;17.33;15.63;;;19.20;99.90;;;;;;5060429;28;20027;-75
2023/09/08 05:52:50;;;;;;;14.82;13.30;;;19.20;99.90;;;;;;5049341;28;20032;-75
2023/09/08 05:55:16;;;;;;;17.60;14.40;;;19.20;99.90;;;;;;5049554;28;20102;-74
2023/09/08 05:57:42;;;;;;;15.40;13.90;;;19.30;99.90;;;;;;5050071;28;20025;-74
2023/09/08 06:00:08;;;;;;;15.05;13.55;;;19.30;99.90;;;;;;5049818;28;20446;-75
2023/09/08 06:02:33;;;;;;;14.98;13.57;;;19.30;99.90;;;;;;5035790;28;20191;-75
2023/09/08 06:04:59;;;;;;;17.17;15.38;;;19.30;99.90;;;;;;5069557;28;20542;-74
2023/09/08 06:07:24;;;;;;;16.00;14.50;;;19.40;99.90;;;;;;5058112;28;20061;-74
2023/09/08 06:09:50;;;;;;;17.40;15.68;;;19.40;99.90;;;;;;5067232;28;20105;-75
2023/09/08 06:12:16;;;;;;;17.13;15.57;;;19.50;99.90;;;;;;5068589;28;20036;-75
2023/09/08 06:14:41;;;;;;;15.73;14.07;;;19.50;99.90;;;;;;5043567;28;20025;-75
2023/09/08 06:17:07;;;;;;;15.40;13.90;;;19.50;99.90;;;;;;5067153;28;20025;-76
2023/09/08 06:19:33;;;;;;;16.98;15.35;;;19.60;99.90;;;;;;5049740;28;20025;-75
2023/09/08 06:21:58;;;;;;;16.67;15.07;;;19.60;99.90;;;;;;5052921;28;20031;-76
2023/09/08 06:24:24;;;;;;;16.58;14.90;;;19.60;99.90;;;;;;5041447;28;20059;-77
2023/09/08 06:26:50;;;;;;;15.38;13.95;;;19.70;99.90;;;;;;5049700;28;20024;-75
2023/09/08 06:29:15;;;;;;;15.95;14.05;;;19.70;99.90;;;;;;5049511;28;20025;-76
2023/09/08 06:31:41;;;;;;;15.88;13.85;;;19.70;99.90;;;;;;5048101;28;20151;-76
2023/09/08 06:34:06;;;;;;;16.70;14.98;;;19.70;99.90;;;;;;5055827;28;20025;-76
2023/09/08 06:36:32;;;;;;;18.05;16.23;;;19.80;99.90;;;;;;5064235;28;20029;-76
2023/09/08 06:38:57;;;;;;;15.90;14.43;;;19.80;99.90;;;;;;5055447;28;20029;-75
2023/09/08 06:41:23;;;;;;;16.60;14.82;;;19.90;99.90;;;;;;5069261;28;20025;-75
2023/09/08 06:43:49;;;;;;;15.75;14.10;;;19.90;99.90;;;;;;5069050;28;20754;-76
2023/09/08 06:46:15;;;;;;;15.43;13.82;;;20.00;99.80;;;;;;5068379;28;20108;-75
2023/09/08 06:48:41;;;;;;;15.32;13.73;;;20.00;99.80;;;;;;5045315;28;20025;-75
2023/09/08 06:51:06;;;;;;;17.05;14.68;;;20.00;99.80;;;;;;5058703;28;20540;-75
2023/09/08 06:53:32;;;;;;;13.98;12.65;;;20.00;99.70;;;;;;5064116;28;20036;-75
2023/09/08 06:55:58;;;;;;;15.77;14.45;;;20.10;99.60;;;;;;5058983;28;20062;-75
2023/09/08 06:58:23;;;;;;;15.75;14.23;;;20.10;99.80;;;;;;5061274;28;20950;-75
2023/09/08 07:00:50;;;;;;;16.05;11.35;;;20.20;99.50;;;;;;5059462;28;20134;-75
2023/09/08 07:03:16;;;;;;;16.35;14.73;;;20.20;99.50;;;;;;5057280;28;20021;-75
2023/09/08 07:05:41;;;;;;;14.40;13.20;;;20.30;99.40;;;;;;5060862;28;20107;-75
2023/09/08 07:08:07;;;;;;;14.80;13.20;;;20.30;99.40;;;;;;5056329;28;20478;-75
2023/09/08 07:10:33;;;;;;;15.25;13.88;;;20.40;99.40;;;;;;5060190;28;20362;-74
2023/09/08 07:12:58;;;;;;;15.57;14.07;;;20.40;99.30;;;;;;5056914;28;20021;-75
2023/09/08 07:15:24;;;;;;;14.43;13.13;;;20.50;99.30;;;;;;5060909;28;20493;-75
2023/09/08 07:17:49;;;;;;;14.75;13.13;;;20.50;99.20;;;;;;5057426;28;20021;-75
2023/09/08 07:20:15;;;;;;;15.07;13.55;;;20.60;99.20;;;;;;5061084;28;20016;-75
2023/09/08 07:22:40;;;;;;;14.40;12.95;;;20.70;99.20;;;;;;5057247;28;20021;-75
2023/09/08 07:25:07;;;;;;;15.63;12.85;;;20.70;99.20;;;;;;5061328;28;20021;-75
2023/09/08 07:27:32;;;;;;;14.75;12.80;;;20.80;99.20;;;;;;5058155;28;20025;-75
2023/09/08 07:29:58;;;;;;;16.38;14.75;;;20.80;99.00;;;;;;5064820;28;20032;-75
2023/09/08 07:32:24;;;;;;;13.65;12.32;;;20.90;99.00;;;;;;5060604;28;20034;-75
2023/09/08 07:34:54;;;;;;;14.25;12.88;;;20.90;99.00;;;;;;5064936;28;20025;-75
2023/09/08 07:37:21;;;;;;;13.05;11.88;;;21.00;99.30;;;;;;5057992;28;20505;-75
2023/09/08 07:39:47;;;;;;;16.50;14.85;;;21.00;99.20;;;;;;5049784;28;20033;-75
2023/09/08 07:42:13;;;;;;;14.13;12.88;;;21.10;98.90;;;;;;5052256;28;20091;-75
2023/09/08 07:44:38;;;;;;;12.88;11.65;;;21.20;98.90;;;;;;5050858;28;20029;-75
2023/09/08 07:47:04;;;;;;;15.18;13.15;;;21.20;98.80;;;;;;5052021;28;20020;-75
2023/09/08 07:49:29;;;;;;;15.50;14.10;;;21.40;98.80;;;;;;5053980;28;20085;-75
2023/09/08 07:51:55;;;;;;;14.80;13.35;;;21.40;99.00;;;;;;5070857;28;20027;-75
2023/09/08 07:54:21;;;;;;;13.88;12.57;;;21.50;98.70;;;;;;5064967;28;20025;-74
2023/09/08 07:56:47;;;;;;;13.60;12.25;;;21.60;98.70;;;;;;5053559;28;20116;-75
2023/09/08 07:59:12;;;;;;;13.05;11.65;;;21.70;98.60;;;;;;5057841;28;20090;-75
2023/09/08 08:01:39;;;;;;;13.05;11.75;;;21.70;98.50;;;;;;5079860;28;20040;-75
2023/09/08 08:04:04;;;;;;;12.30;10.88;;;21.80;98.50;;;;;;5065198;28;20044;-75
2023/09/08 08:06:30;;;;;;;12.63;11.32;;;21.90;98.30;;;;;;5064554;28;20059;-75
2023/09/08 08:08:56;;;;;;;13.20;11.90;;;22.00;98.30;;;;;;5064928;28;20104;-75
2023/09/08 08:11:22;;;;;;;13.15;11.82;;;22.00;98.10;;;;;;5055561;28;20497;-75
2023/09/08 08:13:47;;;;;;;13.18;10.15;;;22.10;98.30;;;;;;5051194;28;20033;-75
2023/09/08 08:16:13;;;;;;;12.00;10.88;;;22.30;98.00;;;;;;5056395;28;20028;-75
2023/09/08 08:18:38;;;;;;;10.68;9.70;;;22.20;97.80;;;;;;5065255;28;20032;-75
2023/09/08 08:21:04;;;;;;;13.13;11.82;;;22.30;97.80;;;;;;5056259;28;20021;-75
2023/09/08 08:23:30;;;;;;;13.75;11.48;;;22.40;97.70;;;;;;5067568;28;20028;-74
2023/09/08 08:25:57;;;;;;;11.98;10.88;;;22.40;97.70;;;;;;5068927;28;20048;-75
2023/09/08 08:28:24;;;;;;;13.93;11.00;;;22.50;97.70;;;;;;5064165;28;20028;-74
2023/09/08 08:30:50;;;;;;;12.98;11.70;;;22.60;97.60;;;;;;5067251;28;20022;-75
2023/09/08 08:33:15;;;;;;;15.65;11.63;;;22.70;97.40;;;;;;5064245;28;20029;-75
2023/09/08 08:35:41;;;;;;;13.65;12.25;;;22.80;97.40;;;;;;5059577;28;20047;-75
2023/09/08 08:38:06;;;;;;;11.02;10.13;;;22.80;97.20;;;;;;5062384;28;20382;-75
2023/09/08 08:40:33;;;;;;;12.13;10.95;;;22.90;97.20;;;;;;5060416;28;20025;-75
2023/09/08 08:43:00;;;;;;;13.40;11.27;;;23.00;97.10;;;;;;5071399;28;20108;-75
2023/09/08 08:45:29;;;;;;;12.05;10.90;;;23.10;97.10;;;;;;5071623;28;20066;-75
2023/09/08 08:47:56;;;;;;;13.68;11.27;;;23.10;96.80;;;;;;5066420;28;20074;-75
2023/09/08 08:50:21;;;;;;;12.55;11.30;;;23.20;96.70;;;;;;5057453;28;20095;-76
2023/09/08 08:52:47;;;;;;;11.40;10.30;;;23.30;96.70;;;;;;5054384;28;20029;-75
2023/09/08 08:55:15;;;;;;;12.52;11.32;;;23.30;96.60;;;;;;5062442;28;20060;-75
2023/09/08 08:57:41;;;;;;;11.65;10.45;;;23.40;96.50;;;;;;5056032;28;20021;-75
2023/09/08 09:00:11;;;;;;;10.75;9.85;;;23.40;96.50;;;;;;5053949;28;20025;-75
2023/09/08 09:02:42;;;;;;;10.98;9.98;;;23.50;96.60;;;;;;5055677;28;20032;-75
2023/09/08 09:05:12;;;;;;;11.20;10.07;;;23.50;96.50;;;;;;5052808;28;20040;-75
2023/09/08 09:07:42;;;;;;;11.73;10.52;;;23.60;96.40;;;;;;5058122;28;20421;-75
2023/09/08 09:10:08;;;;;;;11.77;10.63;;;23.60;96.40;;;;;;5068596;28;20028;-75
2023/09/08 09:12:35;;;;;;;13.30;11.93;;;23.60;96.40;;;;;;5068249;28;20104;-76
2023/09/08 09:15:04;;;;;;;10.85;9.95;;;23.70;96.40;;;;;;5058988;28;20025;-75
2023/09/08 09:17:30;;;;;;;11.35;10.15;;;23.70;96.30;;;;;;5065711;28;20032;-75
2023/09/08 09:20:20;;;;;;;12.00;10.80;;;23.80;96.40;;;;;;5067371;28;20082;-76
2023/09/08 09:22:49;;;;;;;10.63;9.60;;;23.90;96.40;;;;;;5049813;28;20025;-75
2023/09/08 09:25:36;;;;;;;12.65;11.55;;;23.90;96.30;;;;;;5054812;28;20035;-76
2023/09/08 09:28:03;;;;;;;13.55;11.15;;;24.10;96.20;;;;;;5061440;28;20024;-76
2023/09/08 09:30:49;;;;;;;10.63;9.73;;;24.10;96.20;;;;;;5055661;28;20060;-77
2023/09/08 09:33:15;;;;;;;12.98;11.48;;;24.20;96.30;;;;;;5066425;28;20108;-75
2023/09/08 09:35:45;;;;;;;11.68;10.50;;;24.30;96.10;;;;;;5070031;28;20104;-76
2023/09/08 09:38:12;;;;;;;11.80;10.68;;;24.40;96.00;;;;;;5068878;28;20074;-75
2023/09/08 09:40:38;;;;;;;13.55;12.35;;;24.50;95.90;;;;;;5070200;28;20031;-76
2023/09/08 09:43:05;;;;;;;15.70;12.48;;;24.60;95.80;;;;;;5069768;28;20025;-76
2023/09/08 09:45:35;;;;;;;12.70;11.60;;;24.70;95.70;;;;;;5070722;28;20024;-75
2023/09/08 09:48:03;;;;;;;12.05;10.82;;;24.80;95.60;;;;;;5063255;28;20577;-75
2023/09/08 09:50:31;;;;;;;12.90;11.70;;;24.90;95.60;;;;;;5050336;28;20489;-75
2023/09/08 09:53:01;;;;;;;12.73;11.55;;;25.00;95.50;;;;;;5066266;28;20020;-75
2023/09/08 09:55:28;;;;;;;12.63;11.32;;;25.10;95.50;;;;;;5070405;28;20037;-75
2023/09/08 09:57:58;;;;;;;13.65;12.35;;;25.20;95.50;;;;;;5069697;28;20081;-76
2023/09/08 10:00:28;;;;;;;14.25;12.93;;;25.30;95.20;;;;;;5059295;28;20478;-76
2023/09/08 10:02:55;;;;;;;12.32;11.23;;;25.40;95.10;;;;;;5049951;28;20478;-75
2023/09/08 10:05:20;;;;;;;12.63;11.32;;;25.50;95.00;;;;;;5050259;28;20025;-76
2023/09/08 10:07:48;;;;;;;12.65;11.45;;;25.50;94.90;;;;;;5050397;28;20025;-76
2023/09/08 10:10:15;;;;;;;11.30;10.25;;;25.60;94.80;;;;;;5050479;28;20020;-76
2023/09/08 10:12:44;;;;;;;11.18;10.20;;;25.70;94.70;;;;;;5050572;28;20551;-76
2023/09/08 10:15:11;;;;;;;10.52;9.60;;;25.80;94.80;;;;;;5050333;28;20021;-76
2023/09/08 10:17:37;;;;;;;10.82;9.73;;;25.90;94.60;;;;;;5050493;28;20469;-76
2023/09/08 10:20:10;;;;;;;13.68;10.85;;;25.90;94.60;;;;;;5050516;28;20024;-76
2023/09/08 10:22:38;;;;;;;;;;;26.00;94.50;;;;;;5038956;28;20028;-76
2023/09/08 10:25:05;;;;;;;10.02;9.10;;;26.10;94.50;;;;;;5050610;28;19905;-76
2023/09/08 10:27:32;;;;;;;10.70;9.60;;;26.20;94.20;;;;;;5050786;28;20029;-76
2023/09/08 10:30:01;;;;;;;10.15;9.00;;;26.20;94.10;;;;;;5045916;28;20467;-76
2023/09/08 10:32:27;;;;;;;9.10;8.23;;;26.30;94.10;;;;;;5051760;28;20527;-76
2023/09/08 10:34:54;;;;;;;9.50;8.52;;;26.30;94.00;;;;;;5051060;28;20035;-75
2023/09/08 10:37:21;;;;;;;8.98;8.07;;;26.40;93.80;;;;;;5050697;28;20557;-76
2023/09/08 10:39:47;;;;;;;12.05;8.35;;;26.40;93.80;;;;;;5054090;28;20021;-75
2023/09/08 10:42:19;;;;;;;12.18;7.32;;;26.40;93.90;;;;;;5050619;28;20028;-76
2023/09/08 10:44:47;;;;;;;9.25;7.97;;;26.50;94.00;;;;;;5052923;28;20017;-76
2023/09/08 10:47:13;;;;;;;8.77;7.88;;;26.50;94.10;;;;;;5051718;28;20017;-75
2023/09/08 10:49:40;;;;;;;7.97;7.30;;;26.60;93.90;;;;;;5052969;28;20035;-76
2023/09/08 10:52:09;;;;;;;8.93;8.02;;;26.60;93.90;;;;;;5049546;28;20032;-76
2023/09/08 10:54:48;;;;;;;8.77;7.88;;;26.60;93.90;;;;;;5052446;28;20488;-75
2023/09/08 10:57:15;;;;;;;7.93;7.15;;;26.60;93.50;;;;;;5067714;28;20039;-76
2023/09/08 10:59:50;;;;;;;7.55;6.85;;;26.60;93.60;;;;;;5058187;28;20077;-75
2023/09/08 11:02:38;;;;;;;7.22;6.65;;;26.70;93.40;;;;;;5050369;28;20024;-76
2023/09/08 11:05:07;;;;;;;7.22;6.60;;;26.70;93.10;;;;;;5058501;28;20102;-76
2023/09/08 11:07:33;;;;;;;7.13;6.45;;;26.70;93.30;;;;;;5062352;28;20025;-76
2023/09/08 11:10:00;;;;;;;8.73;6.90;;;26.80;93.30;;;;;;5064072;28;20093;-76
2023/09/08 11:12:29;;;;;;;8.02;7.07;;;26.80;93.30;;;;;;5058169;28;20074;-76
2023/09/08 11:14:55;;;;;;;6.90;6.30;;;26.80;93.30;;;;;;5055258;28;20538;-76
2023/09/08 11:17:25;;;;;;;7.60;6.85;;;26.90;93.30;;;;;;5053236;28;20028;-76
2023/09/08 11:19:51;;;;;;;8.43;7.15;;;26.90;93.20;;;;;;5055940;28;20025;-76
2023/09/08 11:22:17;;;;;;;7.85;6.80;;;26.90;93.10;;;;;;5057379;28;20527;-76
2023/09/08 11:24:44;;;;;;;9.52;7.97;;;26.90;93.20;;;;;;5071011;28;20124;-76
2023/09/08 11:27:11;;;;;;;8.20;7.43;;;26.90;93.10;;;;;;5056874;28;20025;-76
2023/09/08 11:29:40;;;;;;;7.35;6.32;;;27.00;93.00;;;;;;5065214;28;20035;-76
2023/09/08 11:32:09;;;;;;;7.75;7.05;;;27.10;93.20;;;;;;5066570;28;20021;-76
2023/09/08 11:34:35;;;;;;;7.60;6.93;;;27.10;93.00;;;;;;5065952;28;20020;-75
2023/09/08 11:37:09;;;;;;;7.32;6.65;;;27.10;93.00;;;;;;5058748;28;20055;-76
2023/09/08 11:39:39;;;;;;;9.15;8.35;;;27.10;92.80;;;;;;5055452;28;20493;-76
2023/09/08 11:42:05;;;;;;;7.97;7.18;;;27.20;92.80;;;;;;5052968;28;20017;-76
2023/09/08 11:44:31;;;;;;;7.88;7.28;;;27.20;92.90;;;;;;5067116;28;20040;-76
2023/09/08 11:46:57;;;;;;;8.02;7.28;;;27.20;92.90;;;;;;5072811;28;20038;-76
2023/09/08 11:49:23;;;;;;;8.55;7.80;;;27.20;93.00;;;;;;5071445;28;20111;-76
2023/09/08 11:51:49;;;;;;;7.95;7.25;;;27.20;93.00;;;;;;5054229;28;20388;-76
2023/09/08 11:54:15;;;;;;;8.10;7.32;;;27.20;93.00;;;;;;5056495;28;20024;-76
2023/09/08 11:56:41;;;;;;;7.40;6.80;;;27.30;93.20;;;;;;5060945;28;20041;-76
2023/09/08 11:59:07;;;;;;;7.90;6.82;;;27.30;93.40;;;;;;5071255;28;20465;-75
2023/09/08 12:01:33;;;;;;;7.38;6.78;;;27.40;93.20;;;;;;5072374;28;20069;-74
2023/09/08 12:03:59;;;;;;;7.60;6.90;;;27.40;93.10;;;;;;5070148;28;20021;-78
2023/09/08 12:06:28;;;;;;;8.65;7.80;;;27.50;93.30;;;;;;5061868;28;20021;-77
2023/09/08 12:08:56;;;;;;;7.25;6.55;;;27.60;93.20;;;;;;5055909;28;20028;-78
2023/09/08 12:11:21;;;;;;;6.78;6.10;;;27.60;93.00;;;;;;5071410;28;20023;-77
2023/09/08 12:13:47;;;;;;;7.72;6.90;;;27.60;93.00;;;;;;5063734;28;20029;-77
2023/09/08 12:16:22;;;;;;;7.97;7.18;;;27.60;92.90;;;;;;5063725;28;20102;-77
2023/09/08 12:18:49;;;;;;;6.97;6.30;;;27.70;92.70;;;;;;5057199;28;20075;-77
2023/09/08 12:21:16;;;;;;;6.72;6.10;;;27.60;92.70;;;;;;5054581;28;20013;-77
2023/09/08 12:23:49;;;;;;;7.70;6.93;;;27.60;92.60;;;;;;5056975;28;20025;-77
2023/09/08 12:26:16;;;;;;;8.30;7.55;;;27.70;92.60;;;;;;5050878;28;20126;-77
2023/09/08 12:28:42;;;;;;;8.60;7.07;;;27.70;92.80;;;;;;5055491;28;20071;-78
2023/09/08 12:31:12;;;;;;;7.40;6.70;;;27.80;92.80;;;;;;5055397;28;20470;-77